sensor_id;sensor_type;location;lat;lon;timestamp;pressure;altitude;pressure_sealevel;temperature
71649;BMP180;59492;45.638;11.714;2023-02-01T00:01:37;101575.40;;;16.52
71649;BMP180;59492;45.638;11.714;2023-02-01T00:04:03;101580.20;;;16.50
71649;BMP180;59492;45.638;11.714;2023-02-01T00:06:29;101582.80;;;16.50
71649;BMP180;59492;45.638;11.714;2023-02-01T00:08:55;101585.60;;;16.50
71649;BMP180;59492;45.638;11.714;2023-02-01T00:11:21;101590.20;;;16.50
71649;BMP180;59492;45.638;11.714;2023-02-01T00:13:47;101589.60;;;16.50
71649;BMP180;59492;45.638;11.714;2023-02-01T00:16:18;101587.80;;;16.50
71649;BMP180;59492;45.638;11.714;2023-02-01T00:18:46;101585.00;;;16.50
71649;BMP180;59492;45.638;11.714;2023-02-01T00:21:18;101580.40;;;16.48
71649;BMP180;59492;45.638;11.714;2023-02-01T00:23:47;101578.80;;;16.44
71649;BMP180;59492;45.638;11.714;2023-02-01T00:26:35;101577.00;;;16.44
71649;BMP180;59492;45.638;11.714;2023-02-01T00:29:03;101585.00;;;16.40
71649;BMP180;59492;45.638;11.714;2023-02-01T00:31:32;101586.20;;;16.40
71649;BMP180;59492;45.638;11.714;2023-02-01T00:33:58;101570.60;;;16.40
71649;BMP180;59492;45.638;11.714;2023-02-01T00:36:26;101568.60;;;16.40
71649;BMP180;59492;45.638;11.714;2023-02-01T00:38:53;101566.20;;;16.40
71649;BMP180;59492;45.638;11.714;2023-02-01T00:41:21;101565.80;;;16.40
71649;BMP180;59492;45.638;11.714;2023-02-01T00:43:49;101573.60;;;16.40
71649;BMP180;59492;45.638;11.714;2023-02-01T00:46:17;101573.40;;;16.40
71649;BMP180;59492;45.638;11.714;2023-02-01T00:48:44;101571.40;;;16.38
71649;BMP180;59492;45.638;11.714;2023-02-01T00:51:12;101565.00;;;16.40
71649;BMP180;59492;45.638;11.714;2023-02-01T00:53:39;101565.60;;;16.38
71649;BMP180;59492;45.638;11.714;2023-02-01T00:56:05;101558.20;;;16.38
71649;BMP180;59492;45.638;11.714;2023-02-01T00:58:39;101559.00;;;16.30
71649;BMP180;59492;45.638;11.714;2023-02-01T01:01:15;101560.20;;;16.40
71649;BMP180;59492;45.638;11.714;2023-02-01T01:03:43;101559.60;;;16.40
71649;BMP180;59492;45.638;11.714;2023-02-01T01:06:12;101567.20;;;16.40
71649;BMP180;59492;45.638;11.714;2023-02-01T01:08:39;101560.80;;;16.40
71649;BMP180;59492;45.638;11.714;2023-02-01T01:11:16;101560.60;;;16.40
71649;BMP180;59492;45.638;11.714;2023-02-01T01:13:42;101555.60;;;16.40
71649;BMP180;59492;45.638;11.714;2023-02-01T01:16:10;101550.20;;;16.40
71649;BMP180;59492;45.638;11.714;2023-02-01T01:18:36;101554.00;;;16.40
71649;BMP180;59492;45.638;11.714;2023-02-01T01:21:04;101547.80;;;16.40
71649;BMP180;59492;45.638;11.714;2023-02-01T01:23:31;101545.40;;;16.38
71649;BMP180;59492;45.638;11.714;2023-02-01T01:25:56;101547.80;;;16.40
71649;BMP180;59492;45.638;11.714;2023-02-01T01:28:22;101544.00;;;16.36
71649;BMP180;59492;45.638;11.714;2023-02-01T01:30:50;101539.40;;;16.36
71649;BMP180;59492;45.638;11.714;2023-02-01T01:33:15;101541.00;;;16.32
71649;BMP180;59492;45.638;11.714;2023-02-01T01:35:41;101541.80;;;16.30
71649;BMP180;59492;45.638;11.714;2023-02-01T01:38:09;101542.20;;;16.32
71649;BMP180;59492;45.638;11.714;2023-02-01T01:40:37;101537.20;;;16.30
71649;BMP180;59492;45.638;11.714;2023-02-01T01:43:03;101539.00;;;16.30
71649;BMP180;59492;45.638;11.714;2023-02-01T01:45:31;101538.20;;;16.30
71649;BMP180;59492;45.638;11.714;2023-02-01T01:48:04;101536.20;;;16.30
71649;BMP180;59492;45.638;11.714;2023-02-01T01:50:58;101533.80;;;16.30
71649;BMP180;59492;45.638;11.714;2023-02-01T01:53:28;101522.40;;;16.20
71649;BMP180;59492;45.638;11.714;2023-02-01T01:56:06;101520.60;;;16.28
71649;BMP180;59492;45.638;11.714;2023-02-01T01:58:32;101522.80;;;16.22
71649;BMP180;59492;45.638;11.714;2023-02-01T02:01:01;101518.40;;;16.24
71649;BMP180;59492;45.638;11.714;2023-02-01T02:03:42;101519.00;;;16.26
71649;BMP180;59492;45.638;11.714;2023-02-01T02:06:18;101518.80;;;16.20
71649;BMP180;59492;45.638;11.714;2023-02-01T02:08:44;101514.40;;;16.20
71649;BMP180;59492;45.638;11.714;2023-02-01T02:11:12;101516.80;;;16.20
71649;BMP180;59492;45.638;11.714;2023-02-01T02:13:46;101517.80;;;16.20
71649;BMP180;59492;45.638;11.714;2023-02-01T02:22:33;101516.80;;;16.20
71649;BMP180;59492;45.638;11.714;2023-02-01T02:30:50;101508.60;;;16.20
71649;BMP180;59492;45.638;11.714;2023-02-01T02:38:49;101500.60;;;16.20
71649;BMP180;59492;45.638;11.714;2023-02-01T02:44:10;101495.80;;;16.12
71649;BMP180;59492;45.638;11.714;2023-02-01T02:47:00;101498.00;;;16.10
71649;BMP180;59492;45.638;11.714;2023-02-01T02:49:54;101497.80;;;16.10
71649;BMP180;59492;45.638;11.714;2023-02-01T02:52:56;101502.80;;;16.10
71649;BMP180;59492;45.638;11.714;2023-02-01T02:55:44;101499.40;;;16.10
71649;BMP180;59492;45.638;11.714;2023-02-01T02:58:13;101504.60;;;16.10
71649;BMP180;59492;45.638;11.714;2023-02-01T03:01:04;101506.80;;;16.10
71649;BMP180;59492;45.638;11.714;2023-02-01T03:03:49;101510.40;;;16.10
71649;BMP180;59492;45.638;11.714;2023-02-01T03:06:37;101502.40;;;16.10
71649;BMP180;59492;45.638;11.714;2023-02-01T03:09:08;101496.80;;;16.10
71649;BMP180;59492;45.638;11.714;2023-02-01T03:11:35;101501.20;;;16.10
71649;BMP180;59492;45.638;11.714;2023-02-01T03:14:40;101499.60;;;16.06
71649;BMP180;59492;45.638;11.714;2023-02-01T03:17:14;101508.40;;;16.04
71649;BMP180;59492;45.638;11.714;2023-02-01T03:19:44;101509.60;;;16.06
71649;BMP180;59492;45.638;11.714;2023-02-01T03:22:17;101506.40;;;16.04
71649;BMP180;59492;45.638;11.714;2023-02-01T03:24:54;101508.00;;;16.04
71649;BMP180;59492;45.638;11.714;2023-02-01T03:27:21;101505.80;;;16.04
71649;BMP180;59492;45.638;11.714;2023-02-01T03:30:01;101502.00;;;16.06
71649;BMP180;59492;45.638;11.714;2023-02-01T03:32:28;101500.00;;;16.00
71649;BMP180;59492;45.638;11.714;2023-02-01T03:34:54;101499.60;;;16.00
71649;BMP180;59492;45.638;11.714;2023-02-01T03:37:25;101501.60;;;16.10
71649;BMP180;59492;45.638;11.714;2023-02-01T03:42:42;101511.00;;;16.10
71649;BMP180;59492;45.638;11.714;2023-02-01T03:45:13;101514.40;;;16.10
71649;BMP180;59492;45.638;11.714;2023-02-01T03:47:45;101516.40;;;16.10
71649;BMP180;59492;45.638;11.714;2023-02-01T03:50:20;101519.20;;;16.10
71649;BMP180;59492;45.638;11.714;2023-02-01T03:53:08;101507.60;;;16.02
71649;BMP180;59492;45.638;11.714;2023-02-01T03:55:36;101514.20;;;16.04
71649;BMP180;59492;45.638;11.714;2023-02-01T03:58:14;101509.80;;;16.06
71649;BMP180;59492;45.638;11.714;2023-02-01T04:00:44;101506.20;;;16.02
71649;BMP180;59492;45.638;11.714;2023-02-01T04:03:11;101511.20;;;16.02
71649;BMP180;59492;45.638;11.714;2023-02-01T04:05:36;101514.20;;;16.04
71649;BMP180;59492;45.638;11.714;2023-02-01T04:08:05;101515.40;;;16.04
71649;BMP180;59492;45.638;11.714;2023-02-01T04:10:31;101519.80;;;16.00
71649;BMP180;59492;45.638;11.714;2023-02-01T04:12:56;101516.40;;;16.02
71649;BMP180;59492;45.638;11.714;2023-02-01T04:15:22;101516.00;;;16.00
71649;BMP180;59492;45.638;11.714;2023-02-01T04:17:48;101519.00;;;16.00
71649;BMP180;59492;45.638;11.714;2023-02-01T04:20:14;101512.20;;;16.00
71649;BMP180;59492;45.638;11.714;2023-02-01T04:22:39;101515.00;;;16.00
71649;BMP180;59492;45.638;11.714;2023-02-01T04:25:09;101519.00;;;16.00
71649;BMP180;59492;45.638;11.714;2023-02-01T04:27:34;101517.60;;;15.98
71649;BMP180;59492;45.638;11.714;2023-02-01T04:30:00;101513.80;;;16.00
71649;BMP180;59492;45.638;11.714;2023-02-01T04:32:26;101514.40;;;15.98
71649;BMP180;59492;45.638;11.714;2023-02-01T04:34:52;101515.20;;;15.94
71649;BMP180;59492;45.638;11.714;2023-02-01T04:37:18;101517.80;;;15.94
71649;BMP180;59492;45.638;11.714;2023-02-01T04:39:44;101509.00;;;15.92
71649;BMP180;59492;45.638;11.714;2023-02-01T04:42:09;101514.00;;;15.90
71649;BMP180;59492;45.638;11.714;2023-02-01T04:44:35;101519.60;;;15.90
71649;BMP180;59492;45.638;11.714;2023-02-01T04:47:06;101521.60;;;15.90
71649;BMP180;59492;45.638;11.714;2023-02-01T04:49:32;101524.00;;;15.90
71649;BMP180;59492;45.638;11.714;2023-02-01T04:52:00;101520.80;;;15.90
71649;BMP180;59492;45.638;11.714;2023-02-01T04:54:25;101516.20;;;15.90
71649;BMP180;59492;45.638;11.714;2023-02-01T04:56:51;101512.20;;;15.90
71649;BMP180;59492;45.638;11.714;2023-02-01T04:59:17;101522.00;;;15.90
71649;BMP180;59492;45.638;11.714;2023-02-01T05:01:42;101524.00;;;15.88
71649;BMP180;59492;45.638;11.714;2023-02-01T05:04:08;101524.00;;;15.90
71649;BMP180;59492;45.638;11.714;2023-02-01T05:06:37;101531.00;;;15.90
71649;BMP180;59492;45.638;11.714;2023-02-01T05:09:05;101526.40;;;15.94
71649;BMP180;59492;45.638;11.714;2023-02-01T05:11:38;101526.60;;;15.90
71649;BMP180;59492;45.638;11.714;2023-02-01T05:14:22;101526.60;;;15.90
71649;BMP180;59492;45.638;11.714;2023-02-01T05:16:48;101526.40;;;15.90
71649;BMP180;59492;45.638;11.714;2023-02-01T05:19:13;101527.00;;;15.90
71649;BMP180;59492;45.638;11.714;2023-02-01T05:21:39;101526.60;;;15.90
71649;BMP180;59492;45.638;11.714;2023-02-01T05:24:05;101532.40;;;15.90
71649;BMP180;59492;45.638;11.714;2023-02-01T05:26:46;101537.00;;;15.86
71649;BMP180;59492;45.638;11.714;2023-02-01T05:29:16;101546.40;;;15.88
71649;BMP180;59492;45.638;11.714;2023-02-01T05:31:44;101545.00;;;15.86
71649;BMP180;59492;45.638;11.714;2023-02-01T05:34:10;101545.20;;;15.84
71649;BMP180;59492;45.638;11.714;2023-02-01T05:36:39;101543.40;;;15.84
71649;BMP180;59492;45.638;11.714;2023-02-01T05:39:07;101548.60;;;15.82
71649;BMP180;59492;45.638;11.714;2023-02-01T05:41:36;101550.80;;;15.80
71649;BMP180;59492;45.638;11.714;2023-02-01T05:44:02;101545.80;;;15.80
71649;BMP180;59492;45.638;11.714;2023-02-01T05:46:28;101547.00;;;15.80
71649;BMP180;59492;45.638;11.714;2023-02-01T05:48:54;101547.40;;;15.80
71649;BMP180;59492;45.638;11.714;2023-02-01T05:51:19;101549.40;;;15.80
71649;BMP180;59492;45.638;11.714;2023-02-01T05:53:45;101544.80;;;15.80
71649;BMP180;59492;45.638;11.714;2023-02-01T05:56:11;101542.60;;;15.80
71649;BMP180;59492;45.638;11.714;2023-02-01T05:58:47;101541.80;;;15.80
71649;BMP180;59492;45.638;11.714;2023-02-01T06:01:12;101535.20;;;15.74
71649;BMP180;59492;45.638;11.714;2023-02-01T06:03:38;101535.20;;;15.76
71649;BMP180;59492;45.638;11.714;2023-02-01T06:06:07;101538.60;;;15.76
71649;BMP180;59492;45.638;11.714;2023-02-01T06:08:35;101529.80;;;15.74
71649;BMP180;59492;45.638;11.714;2023-02-01T06:11:04;101531.80;;;15.70
71649;BMP180;59492;45.638;11.714;2023-02-01T06:13:30;101537.80;;;15.70
71649;BMP180;59492;45.638;11.714;2023-02-01T06:15:56;101535.40;;;15.70
71649;BMP180;59492;45.638;11.714;2023-02-01T06:18:25;101531.20;;;15.70
71649;BMP180;59492;45.638;11.714;2023-02-01T06:20:55;101536.40;;;15.70
71649;BMP180;59492;45.638;11.714;2023-02-01T06:23:30;101541.60;;;15.70
71649;BMP180;59492;45.638;11.714;2023-02-01T06:26:05;101534.80;;;15.70
71649;BMP180;59492;45.638;11.714;2023-02-01T06:28:31;101532.40;;;15.70
71649;BMP180;59492;45.638;11.714;2023-02-01T06:30:58;101537.00;;;15.80
71649;BMP180;59492;45.638;11.714;2023-02-01T06:33:30;101536.80;;;15.80
71649;BMP180;59492;45.638;11.714;2023-02-01T06:35:57;101535.40;;;15.78
71649;BMP180;59492;45.638;11.714;2023-02-01T06:38:26;101533.80;;;15.74
71649;BMP180;59492;45.638;11.714;2023-02-01T06:40:54;101531.60;;;15.74
71649;BMP180;59492;45.638;11.714;2023-02-01T06:43:30;101533.00;;;15.70
71649;BMP180;59492;45.638;11.714;2023-02-01T06:46:12;101538.60;;;15.70
71649;BMP180;59492;45.638;11.714;2023-02-01T06:48:39;101539.80;;;15.70
71649;BMP180;59492;45.638;11.714;2023-02-01T06:51:05;101543.60;;;15.70
71649;BMP180;59492;45.638;11.714;2023-02-01T06:53:33;101542.20;;;15.70
71649;BMP180;59492;45.638;11.714;2023-02-01T06:56:03;101541.80;;;15.70
71649;BMP180;59492;45.638;11.714;2023-02-01T06:58:30;101542.00;;;15.70
71649;BMP180;59492;45.638;11.714;2023-02-01T07:00:56;101553.20;;;15.70
71649;BMP180;59492;45.638;11.714;2023-02-01T07:03:24;101556.00;;;15.70
71649;BMP180;59492;45.638;11.714;2023-02-01T07:05:57;101550.60;;;15.70
71649;BMP180;59492;45.638;11.714;2023-02-01T07:08:31;101548.40;;;15.68
71649;BMP180;59492;45.638;11.714;2023-02-01T07:11:03;101552.00;;;15.66
71649;BMP180;59492;45.638;11.714;2023-02-01T07:13:32;101554.80;;;15.66
71649;BMP180;59492;45.638;11.714;2023-02-01T07:16:00;101553.40;;;15.66
71649;BMP180;59492;45.638;11.714;2023-02-01T07:18:27;101556.00;;;15.66
71649;BMP180;59492;45.638;11.714;2023-02-01T07:20:55;101560.80;;;15.64
71649;BMP180;59492;45.638;11.714;2023-02-01T07:23:21;101564.40;;;15.64
71649;BMP180;59492;45.638;11.714;2023-02-01T07:25:47;101571.00;;;15.62
71649;BMP180;59492;45.638;11.714;2023-02-01T07:28:13;101566.60;;;15.66
71649;BMP180;59492;45.638;11.714;2023-02-01T07:30:41;101570.40;;;15.70
71649;BMP180;59492;45.638;11.714;2023-02-01T07:33:07;101576.40;;;15.72
71649;BMP180;59492;45.638;11.714;2023-02-01T07:35:33;101577.20;;;15.70
71649;BMP180;59492;45.638;11.714;2023-02-01T07:37:59;101572.40;;;15.70
71649;BMP180;59492;45.638;11.714;2023-02-01T07:40:26;101571.60;;;15.70
71649;BMP180;59492;45.638;11.714;2023-02-01T07:42:55;101567.00;;;15.70
71649;BMP180;59492;45.638;11.714;2023-02-01T07:45:23;101564.60;;;15.72
71649;BMP180;59492;45.638;11.714;2023-02-01T07:47:52;101571.60;;;15.78
71649;BMP180;59492;45.638;11.714;2023-02-01T07:50:18;101575.20;;;15.80
71649;BMP180;59492;45.638;11.714;2023-02-01T07:52:44;101574.40;;;15.80
71649;BMP180;59492;45.638;11.714;2023-02-01T07:55:10;101578.20;;;15.80
71649;BMP180;59492;45.638;11.714;2023-02-01T07:57:36;101586.20;;;15.90
71649;BMP180;59492;45.638;11.714;2023-02-01T08:00:02;101586.20;;;15.90
71649;BMP180;59492;45.638;11.714;2023-02-01T08:02:49;101586.60;;;16.00
71649;BMP180;59492;45.638;11.714;2023-02-01T08:05:15;101585.40;;;16.10
71649;BMP180;59492;45.638;11.714;2023-02-01T08:07:40;101578.60;;;16.22
71649;BMP180;59492;45.638;11.714;2023-02-01T08:10:06;101577.20;;;16.34
71649;BMP180;59492;45.638;11.714;2023-02-01T08:12:36;101571.80;;;16.50
71649;BMP180;59492;45.638;11.714;2023-02-01T08:15:03;101571.60;;;16.60
71649;BMP180;59492;45.638;11.714;2023-02-01T08:17:32;101565.00;;;16.68
71649;BMP180;59492;45.638;11.714;2023-02-01T08:19:58;101570.00;;;16.80
71649;BMP180;59492;45.638;11.714;2023-02-01T08:22:24;101570.40;;;16.90
71649;BMP180;59492;45.638;11.714;2023-02-01T08:24:51;101562.80;;;17.00
71649;BMP180;59492;45.638;11.714;2023-02-01T08:27:27;101558.20;;;17.00
71649;BMP180;59492;45.638;11.714;2023-02-01T08:29:52;101550.80;;;17.00
71649;BMP180;59492;45.638;11.714;2023-02-01T08:32:19;101549.40;;;17.00
71649;BMP180;59492;45.638;11.714;2023-02-01T08:34:45;101554.60;;;17.00
71649;BMP180;59492;45.638;11.714;2023-02-01T08:37:10;101558.00;;;17.08
71649;BMP180;59492;45.638;11.714;2023-02-01T08:39:36;101554.60;;;17.10
71649;BMP180;59492;45.638;11.714;2023-02-01T08:42:05;101557.40;;;17.24
71649;BMP180;59492;45.638;11.714;2023-02-01T08:44:49;101555.20;;;17.30
71649;BMP180;59492;45.638;11.714;2023-02-01T08:47:17;101557.20;;;17.42
71649;BMP180;59492;45.638;11.714;2023-02-01T08:49:42;101562.00;;;17.60
71649;BMP180;59492;45.638;11.714;2023-02-01T08:52:08;101564.20;;;17.80
71649;BMP180;59492;45.638;11.714;2023-02-01T08:54:33;101561.00;;;17.96
71649;BMP180;59492;45.638;11.714;2023-02-01T08:56:59;101560.20;;;18.10
71649;BMP180;59492;45.638;11.714;2023-02-01T08:59:25;101562.20;;;18.30
71649;BMP180;59492;45.638;11.714;2023-02-01T09:01:53;101558.60;;;18.40
71649;BMP180;59492;45.638;11.714;2023-02-01T09:04:20;101557.80;;;18.50
71649;BMP180;59492;45.638;11.714;2023-02-01T09:06:46;101561.40;;;18.66
71649;BMP180;59492;45.638;11.714;2023-02-01T09:09:12;101568.60;;;18.78
71649;BMP180;59492;45.638;11.714;2023-02-01T09:11:37;101568.80;;;18.90
71649;BMP180;59492;45.638;11.714;2023-02-01T09:14:03;101566.40;;;18.96
71649;BMP180;59492;45.638;11.714;2023-02-01T09:16:29;101560.00;;;19.00
71649;BMP180;59492;45.638;11.714;2023-02-01T09:18:54;101559.80;;;19.00
71649;BMP180;59492;45.638;11.714;2023-02-01T09:21:20;101557.40;;;19.10
71649;BMP180;59492;45.638;11.714;2023-02-01T09:23:46;101564.00;;;19.10
71649;BMP180;59492;45.638;11.714;2023-02-01T09:26:14;101562.60;;;19.18
71649;BMP180;59492;45.638;11.714;2023-02-01T09:28:39;101561.40;;;19.20
71649;BMP180;59492;45.638;11.714;2023-02-01T09:31:05;101555.00;;;19.26
71649;BMP180;59492;45.638;11.714;2023-02-01T09:33:31;101558.00;;;19.30
71649;BMP180;59492;45.638;11.714;2023-02-01T09:36:02;101566.20;;;19.30
71649;BMP180;59492;45.638;11.714;2023-02-01T09:38:33;101565.40;;;19.40
71649;BMP180;59492;45.638;11.714;2023-02-01T09:41:25;101570.00;;;19.40
71649;BMP180;59492;45.638;11.714;2023-02-01T09:44:03;101583.00;;;19.50
71649;BMP180;59492;45.638;11.714;2023-02-01T09:46:32;101579.60;;;19.52
71649;BMP180;59492;45.638;11.714;2023-02-01T09:49:08;101574.40;;;19.60
71649;BMP180;59492;45.638;11.714;2023-02-01T09:51:45;101570.80;;;19.60
71649;BMP180;59492;45.638;11.714;2023-02-01T09:54:18;101570.00;;;19.70
71649;BMP180;59492;45.638;11.714;2023-02-01T09:59:23;101571.60;;;19.74
71649;BMP180;59492;45.638;11.714;2023-02-01T10:01:51;101580.00;;;19.74
71649;BMP180;59492;45.638;11.714;2023-02-01T10:04:18;101580.20;;;19.80
71649;BMP180;59492;45.638;11.714;2023-02-01T10:07:06;101580.20;;;19.80
71649;BMP180;59492;45.638;11.714;2023-02-01T10:09:44;101591.60;;;19.90
71649;BMP180;59492;45.638;11.714;2023-02-01T10:25:55;101573.40;;;20.00
71649;BMP180;59492;45.638;11.714;2023-02-01T10:28:22;101570.20;;;20.00
71649;BMP180;59492;45.638;11.714;2023-02-01T10:30:52;101568.40;;;20.02
71649;BMP180;59492;45.638;11.714;2023-02-01T10:33:26;101565.40;;;20.10
71649;BMP180;59492;45.638;11.714;2023-02-01T10:38:33;101556.20;;;20.10
71649;BMP180;59492;45.638;11.714;2023-02-01T10:41:03;101555.60;;;20.10
71649;BMP180;59492;45.638;11.714;2023-02-01T10:43:30;101557.00;;;20.18
71649;BMP180;59492;45.638;11.714;2023-02-01T10:45:56;101558.20;;;20.20
71649;BMP180;59492;45.638;11.714;2023-02-01T10:48:22;101550.40;;;20.20
71649;BMP180;59492;45.638;11.714;2023-02-01T10:51:36;101550.00;;;20.20
71649;BMP180;59492;45.638;11.714;2023-02-01T10:54:14;101558.40;;;20.20
71649;BMP180;59492;45.638;11.714;2023-02-01T10:56:44;101564.00;;;20.22
71649;BMP180;59492;45.638;11.714;2023-02-01T10:59:19;101561.20;;;20.28
71649;BMP180;59492;45.638;11.714;2023-02-01T11:01:47;101562.60;;;20.30
71649;BMP180;59492;45.638;11.714;2023-02-01T11:04:18;101553.40;;;20.30
71649;BMP180;59492;45.638;11.714;2023-02-01T11:06:51;101551.00;;;20.30
71649;BMP180;59492;45.638;11.714;2023-02-01T11:09:22;101558.40;;;20.30
71649;BMP180;59492;45.638;11.714;2023-02-01T11:14:18;101556.40;;;20.30
71649;BMP180;59492;45.638;11.714;2023-02-01T11:16:59;101551.80;;;20.30
71649;BMP180;59492;45.638;11.714;2023-02-01T11:19:28;101537.20;;;20.30
71649;BMP180;59492;45.638;11.714;2023-02-01T11:21:56;101541.00;;;20.30
71649;BMP180;59492;45.638;11.714;2023-02-01T11:24:32;101553.60;;;20.30
71649;BMP180;59492;45.638;11.714;2023-02-01T11:27:15;101558.20;;;20.30
71649;BMP180;59492;45.638;11.714;2023-02-01T11:29:43;101547.20;;;20.30
71649;BMP180;59492;45.638;11.714;2023-02-01T11:32:13;101532.40;;;20.20
71649;BMP180;59492;45.638;11.714;2023-02-01T11:34:55;101523.40;;;20.20
71649;BMP180;59492;45.638;11.714;2023-02-01T11:37:41;101530.80;;;20.20
71649;BMP180;59492;45.638;11.714;2023-02-01T11:45:29;101533.20;;;20.00
71649;BMP180;59492;45.638;11.714;2023-02-01T11:47:57;101525.80;;;20.00
71649;BMP180;59492;45.638;11.714;2023-02-01T11:53:55;101504.20;;;19.90
71649;BMP180;59492;45.638;11.714;2023-02-01T11:59:19;101500.60;;;19.80
71649;BMP180;59492;45.638;11.714;2023-02-01T12:02:08;101497.80;;;19.78
71649;BMP180;59492;45.638;11.714;2023-02-01T12:04:59;101491.60;;;19.70
71649;BMP180;59492;45.638;11.714;2023-02-01T12:07:48;101487.80;;;19.70
71649;BMP180;59492;45.638;11.714;2023-02-01T12:11:14;101487.60;;;19.70
71649;BMP180;59492;45.638;11.714;2023-02-01T12:13:38;101488.00;;;19.70
71649;BMP180;59492;45.638;11.714;2023-02-01T12:32:11;101458.60;;;19.42
71649;BMP180;59492;45.638;11.714;2023-02-01T12:37:20;101443.60;;;19.40
71649;BMP180;59492;45.638;11.714;2023-02-01T12:45:46;101425.60;;;19.30
71649;BMP180;59492;45.638;11.714;2023-02-01T12:48:31;101425.60;;;19.20
71649;BMP180;59492;45.638;11.714;2023-02-01T12:51:09;101419.20;;;19.20
71649;BMP180;59492;45.638;11.714;2023-02-01T12:53:55;101426.00;;;19.20
71649;BMP180;59492;45.638;11.714;2023-02-01T12:58:54;101427.60;;;19.14
71649;BMP180;59492;45.638;11.714;2023-02-01T13:01:49;101424.80;;;19.10
71649;BMP180;59492;45.638;11.714;2023-02-01T13:04:33;101423.80;;;19.10
71649;BMP180;59492;45.638;11.714;2023-02-01T13:07:07;101414.60;;;19.00
71649;BMP180;59492;45.638;11.714;2023-02-01T13:09:47;101419.00;;;19.00
71649;BMP180;59492;45.638;11.714;2023-02-01T13:12:21;101416.60;;;18.96
71649;BMP180;59492;45.638;11.714;2023-02-01T13:15:03;101405.40;;;18.90
71649;BMP180;59492;45.638;11.714;2023-02-01T13:17:33;101397.80;;;18.90
71649;BMP180;59492;45.638;11.714;2023-02-01T13:20:15;101395.60;;;18.88
71649;BMP180;59492;45.638;11.714;2023-02-01T13:22:47;101380.40;;;18.80
71649;BMP180;59492;45.638;11.714;2023-02-01T13:25:24;101372.80;;;18.74
71649;BMP180;59492;45.638;11.714;2023-02-01T13:27:57;101378.40;;;18.70
71649;BMP180;59492;45.638;11.714;2023-02-01T13:30:34;101375.40;;;18.70
71649;BMP180;59492;45.638;11.714;2023-02-01T13:41:58;101371.40;;;18.48
71649;BMP180;59492;45.638;11.714;2023-02-01T13:44:48;101362.20;;;18.40
71649;BMP180;59492;45.638;11.714;2023-02-01T13:47:35;101360.20;;;18.40
71649;BMP180;59492;45.638;11.714;2023-02-01T13:50:25;101357.60;;;18.34
71649;BMP180;59492;45.638;11.714;2023-02-01T13:57:46;101364.80;;;18.30
71649;BMP180;59492;45.638;11.714;2023-02-01T14:00:36;101361.60;;;18.30
71649;BMP180;59492;45.638;11.714;2023-02-01T14:13:23;101348.20;;;18.20
71649;BMP180;59492;45.638;11.714;2023-02-01T14:21:19;101355.80;;;18.16
71649;BMP180;59492;45.638;11.714;2023-02-01T14:23:57;101359.80;;;18.10
71649;BMP180;59492;45.638;11.714;2023-02-01T14:26:26;101363.40;;;18.10
71649;BMP180;59492;45.638;11.714;2023-02-01T14:28:58;101364.20;;;18.10
71649;BMP180;59492;45.638;11.714;2023-02-01T14:31:49;101362.80;;;18.10
71649;BMP180;59492;45.638;11.714;2023-02-01T14:42:29;101349.00;;;18.00
71649;BMP180;59492;45.638;11.714;2023-02-01T14:47:51;101344.20;;;17.98
71649;BMP180;59492;45.638;11.714;2023-02-01T14:53:02;101343.20;;;17.98
71649;BMP180;59492;45.638;11.714;2023-02-01T15:01:27;101360.60;;;17.82
71649;BMP180;59492;45.638;11.714;2023-02-01T15:03:58;101361.00;;;17.86
71649;BMP180;59492;45.638;11.714;2023-02-01T15:09:19;101360.40;;;17.84
71649;BMP180;59492;45.638;11.714;2023-02-01T15:12:03;101359.80;;;17.80
71649;BMP180;59492;45.638;11.714;2023-02-01T15:14:36;101358.20;;;17.80
71649;BMP180;59492;45.638;11.714;2023-02-01T15:17:16;101360.60;;;17.80
71649;BMP180;59492;45.638;11.714;2023-02-01T15:19:56;101354.20;;;17.76
71649;BMP180;59492;45.638;11.714;2023-02-01T15:22:23;101348.60;;;17.70
71649;BMP180;59492;45.638;11.714;2023-02-01T15:24:53;101346.80;;;17.70
71649;BMP180;59492;45.638;11.714;2023-02-01T15:27:20;101341.00;;;17.70
71649;BMP180;59492;45.638;11.714;2023-02-01T15:29:46;101335.80;;;17.70
71649;BMP180;59492;45.638;11.714;2023-02-01T15:32:35;101335.60;;;17.70
71649;BMP180;59492;45.638;11.714;2023-02-01T15:35:04;101334.20;;;17.66
71649;BMP180;59492;45.638;11.714;2023-02-01T15:37:31;101324.80;;;17.68
71649;BMP180;59492;45.638;11.714;2023-02-01T15:42:30;101328.80;;;17.62
71649;BMP180;59492;45.638;11.714;2023-02-01T15:44:56;101327.60;;;17.60
71649;BMP180;59492;45.638;11.714;2023-02-01T15:47:27;101336.60;;;17.60
71649;BMP180;59492;45.638;11.714;2023-02-01T15:49:58;101342.40;;;17.60
71649;BMP180;59492;45.638;11.714;2023-02-01T15:52:38;101352.60;;;17.58
71649;BMP180;59492;45.638;11.714;2023-02-01T15:55:52;101348.80;;;17.50
71649;BMP180;59492;45.638;11.714;2023-02-01T15:57:52;101349.80;;;17.50
71649;BMP180;59492;45.638;11.714;2023-02-01T16:00:25;101350.60;;;17.50
71649;BMP180;59492;45.638;11.714;2023-02-01T16:05:39;101346.00;;;17.48
71649;BMP180;59492;45.638;11.714;2023-02-01T16:08:12;101346.80;;;17.42
71649;BMP180;59492;45.638;11.714;2023-02-01T16:10:46;101353.60;;;17.40
71649;BMP180;59492;45.638;11.714;2023-02-01T16:13:14;101348.60;;;17.40
71649;BMP180;59492;45.638;11.714;2023-02-01T16:15:40;101353.40;;;17.40
71649;BMP180;59492;45.638;11.714;2023-02-01T16:18:08;101357.40;;;17.40
71649;BMP180;59492;45.638;11.714;2023-02-01T16:20:39;101354.60;;;17.36
71649;BMP180;59492;45.638;11.714;2023-02-01T16:23:06;101361.80;;;17.32
71649;BMP180;59492;45.638;11.714;2023-02-01T16:25:33;101365.80;;;17.32
71649;BMP180;59492;45.638;11.714;2023-02-01T16:27:59;101370.00;;;17.30